• Join FlightAware (Why Join?)
  • Login
  • US Flag 
02:35AM EST


 

Airport Tracker/Info


-or-


 

Live Flight TrackerFlight Track Log ✈ XOJ793 ✈ 17-Jul-2014 ✈ KHOU - KFOK

Flight Track Log - Related Links

Times and Time Zones

All times are in EDT time to prevent confusion due to time zone crossing. See the XOJ793 flight status page for this flight to view local times or setup timezone preferences in your user account.

Time Position Orientation Groundspeed Altitude Reporting Facility
EDT Latitude Longitude Course Direction KTS MPH feet Rate Location/Type
03:54PM 29.6314 -95.2919 182° South 167 192 1,100  Level Houston Center
03:54PM 29.6144 -95.2928 182° South 172 198 1,900 2,160 Climbing Houston Center
03:55PM 29.5994 -95.2622 119° Southeast 220 253 3,100 2,580 Climbing Houston Center
03:55PM 29.5817 -95.2189 115° Southeast 231 266 4,600 2,460 Climbing Houston Center
03:56PM 29.5386 -95.1706 136° Southeast 229 264 7,400 2,580 Climbing Houston Center
03:57PM 29.4819 -95.1353 152° Southeast 236 272 10,000 2,340 Climbing Houston Center
03:58PM 29.4292 -95.0700 133° Southeast 253 291 12,300 2,040 Climbing Houston Center
03:59PM 29.3558 -95.0306 155° Southeast 277 319 14,300 1,800 Climbing Houston Center
04:01PM 29.2758 -95.0158 171° South 286 329 16,100 1,440 Climbing Houston Center
04:02PM 29.1897 -94.9994 171° South 307 353 17,400 1,260 Climbing Houston Center
04:03PM 29.0936 -94.9819 171° South 342 394 18,800 1,620 Climbing Houston Center
04:04PM 29.0106 -94.9308 152° Southeast 364 419 20,800 1,980 Climbing Houston Center
04:05PM 29.0036 -94.8169 94° East 360 414 23,000 2,160 Climbing Houston Center
04:06PM 28.9964 -94.6792 93° East 365 420 25,300 1,980 Climbing Houston Center
04:07PM 29.0081 -94.5669 83° East 371 427 27,100 1,500 Climbing Houston Center
04:08PM 29.0778 -94.4833 46° Northeast 369 425 28,400 1,020 Climbing Houston Center
04:09PM 29.1617 -94.4039 40° Northeast 392 451 29,300 900 Climbing Houston Center
04:10PM 29.2481 -94.3189 41° Northeast 409 471 30,300 960 Climbing Houston Center
04:11PM 29.3572 -94.2108 41° Northeast 434 499 31,400 1,020 Climbing Houston Center
04:12PM 29.4425 -94.1258 41° Northeast 439 505 32,500 1,200 Climbing Houston Center
04:13PM 29.5339 -94.0325 42° Northeast 439 505 33,900 1,680 Climbing Houston Center
04:14PM 29.6433 -93.9236 41° Northeast 437 503 36,000 1,980 Climbing Houston Center
04:15PM 29.7311 -93.8356 41° Northeast 420 483 38,100 1,500 Climbing Houston Center
04:16PM 29.8158 -93.7486 42° Northeast 409 471 39,100 720 Climbing Houston Center
04:17PM 29.9056 -93.6581 41° Northeast 424 488 39,700 480 Climbing Houston Center
04:18PM 29.9978 -93.5636 42° Northeast 443 510 40,200 540 Climbing Houston Center
04:19PM 30.1114 -93.4469 42° Northeast 459 528 40,900 600 Climbing Houston Center
04:20PM 30.2067 -93.3467 42° Northeast 468 539 41,500 480 Climbing Houston Center
04:21PM 30.3053 -93.2478 41° Northeast 475 547 42,000 480 Climbing Houston Center
04:22PM 30.4042 -93.1453 42° Northeast 477 549 42,600 540 Climbing Houston Center
04:23PM 30.5239 -93.0236 41° Northeast 478 550 43,200 540 Climbing Houston Center
04:24PM 30.6233 -92.9203 42° Northeast 479 551 43,800 480 Climbing Houston Center
04:25PM 30.7222 -92.8194 41° Northeast 478 550 44,300 480 Climbing Houston Center
04:26PM 30.8203 -92.7167 42° Northeast 468 539 44,900 300 Climbing Houston Center
04:27PM 30.9156 -92.6167 42° Northeast 467 537 45,000  Climbing Houston Center
04:29PM 31.0300 -92.4953 42° Northeast 467 537 45,000  Level Houston Center
04:30PM 31.1283 -92.3925 42° Northeast 471 542 45,000  Level Houston Center
04:31PM 31.2275 -92.2883 42° Northeast 477 549 45,000  Level Houston Center
04:32PM 31.3189 -92.1744 47° Northeast 481 554 45,000  Level Houston Center
04:33PM 31.4147 -92.0306 52° Northeast 484 557 45,000  Level Houston Center
04:34PM 31.4989 -91.9083 51° Northeast 484 557 45,000  Level Houston Center
04:35PM 31.5819 -91.7831 52° Northeast 485 558 45,000  Level Houston Center
04:36PM 31.6661 -91.6583 52° Northeast 486 559 45,000  Level Houston Center
04:37PM 31.7508 -91.5328 52° Northeast 488 562 45,000  Level Houston Center
04:38PM 31.8514 -91.3803 52° Northeast 493 567 45,000  Level Houston Center
04:39PM 31.9367 -91.2519 52° Northeast 494 568 45,000  Level Houston Center
04:40PM 32.0206 -91.1236 52° Northeast 494 568 45,000  Level Houston Center
04:41PM 32.1064 -90.9939 52° Northeast 499 574 45,000  Level Houston Center
04:42PM 32.1911 -90.8650 52° Northeast 499 574 45,000  Level Houston Center
04:43PM 32.2861 -90.7197 52° Northeast 499 574 45,000  Level Houston Center
04:44PM 32.3706 -90.5897 52° Northeast 499 574 45,000  Level Houston Center
04:45PM 32.4553 -90.4603 52° Northeast 498 573 45,000  Level Houston Center
04:46PM 32.5381 -90.3306 53° Northeast 496 571 45,000  Level Houston Center
04:47PM 32.6383 -90.1767 52° Northeast 493 567 45,000  Level Houston Center
04:48PM 32.7222 -90.0444 53° Northeast 495 570 45,000  Level Houston Center
04:49PM 32.8044 -89.9150 53° Northeast 494 568 45,000  Level Houston Center
04:50PM 32.8975 -89.7681 53° Northeast 493 567 45,000  Level Houston Center
04:52PM 32.9958 -89.6128 53° Northeast 502 578 45,000  Level Memphis Center
04:53PM 33.0775 -89.4861 52° Northeast 493 567 45,000  Level Memphis Center
04:54PM 33.1592 -89.3564 53° Northeast 492 566 45,000  Level Memphis Center
04:55PM 33.2400 -89.2256 54° Northeast 492 566 45,000  Level Memphis Center
04:56PM 33.3392 -89.0703 53° Northeast 493 567 45,000  Level Memphis Center
04:57PM 33.4206 -88.9383 54° Northeast 493 567 45,000  Level Memphis Center
04:58PM 33.5022 -88.8069 53° Northeast 493 567 45,000  Level Memphis Center
04:59PM 33.5917 -88.6617 54° Northeast 493 567 45,000  Level Memphis Center
05:00PM 33.6728 -88.5300 53° Northeast 493 567 45,000 -480 Level Memphis Center
05:01PM 33.7564 -88.3956 53° Northeast 497 572 44,000 -1,020 Descending Memphis Center
05:02PM 33.8397 -88.2572 54° Northeast 508 585 43,000 -1,020 Descending Memphis Center
05:03PM 33.9436 -88.0864 54° Northeast 523 602 41,900 -1,020 Descending Memphis Center
05:04PM 34.0317 -87.9411 54° Northeast 534 615 41,000 -480 Descending Memphis Center
05:05PM 34.1136 -87.8053 54° Northeast 534 615 41,000  Level Memphis Center
05:06PM 34.2000 -87.6606 54° Northeast 534 615 41,000  Level Memphis Center
05:07PM 34.3044 -87.4847 54° Northeast 535 616 41,000  Level Memphis Center
05:08PM 34.3936 -87.3392 53° Northeast 538 619 41,000  Level Memphis Center
05:09PM 34.4789 -87.1933 55° Northeast 538 619 41,000  Level Memphis Center
05:10PM 34.5658 -87.0467 54° Northeast 538 619 41,000  Level Memphis Center
05:11PM 34.6522 -86.8983 55° Northeast 538 619 41,000  Level Memphis Center
05:12PM 34.7578 -86.7197 54° Northeast 539 620 41,000  Level Memphis Center
05:13PM 34.8442 -86.5708 55° Northeast 541 623 41,000  Level Memphis Center
05:14PM 34.9322 -86.4219 54° Northeast 541 623 41,000  Level Memphis Center
05:15PM 35.0192 -86.2708 55° Northeast 542 624 41,000  Level Memphis Center
05:16PM 35.1092 -86.1144 55° Northeast 543 625 41,000  Level Memphis Center
05:17PM 35.1958 -85.9622 55° Northeast 543 625 41,000  Level Memphis Center
05:18PM 35.2842 -85.8097 55° Northeast 545 627 41,000  Level Memphis Center
05:19PM 35.3886 -85.6233 55° Northeast 548 631 41,000  Level Memphis Center
05:21PM 35.5464 -85.3458 55° Northeast 544 626 41,000  Level Indianapolis Center
05:22PM 35.6328 -85.1911 55° Northeast 548 631 41,000  Level Indianapolis Center
05:23PM 35.7203 -85.0342 55° Northeast 549 632 41,000  Level Indianapolis Center
05:24PM 35.8061 -84.8761 56° Northeast 549 632 41,000  Level Indianapolis Center
05:25PM 35.9042 -84.7003 55° Northeast 555 639 41,000  Level Atlanta Center
05:26PM 35.9906 -84.5469 55° Northeast 555 639 41,000  Level Atlanta Center
05:27PM 36.0767 -84.3908 56° Northeast 555 639 41,000  Level Atlanta Center
05:28PM 36.1625 -84.2342 56° Northeast 555 639 41,000  Level Atlanta Center
05:29PM 36.2461 -84.0772 57° Northeast 555 639 41,000  Level Atlanta Center
05:30PM 36.3314 -83.9203 56° Northeast 555 639 41,000  Level Atlanta Center
05:32PM 36.4350 -83.7256 56° Northeast 550 633 41,000  Level Indianapolis Center
05:33PM 36.5217 -83.5642 56° Northeast 547 629 41,000  Level Indianapolis Center
05:34PM 36.6056 -83.4075 56° Northeast 545 627 41,000  Level Indianapolis Center
05:35PM 36.6889 -83.2511 56° Northeast 545 627 41,000  Level Indianapolis Center
05:36PM 36.7853 -83.0681 57° Northeast 545 627 41,000  Level Indianapolis Center
05:37PM 36.8681 -82.9094 57° Northeast 544 626 41,000  Level Indianapolis Center
05:38PM 36.9328 -82.7347 65° Northeast 551 634 41,000  Level Indianapolis Center
05:39PM 37.0064 -82.5414 64° Northeast 554 638 41,000  Level Indianapolis Center
05:40PM 37.0725 -82.3664 65° Northeast 555 639 41,000  Level Indianapolis Center
05:41PM 37.1378 -82.1933 65° Northeast 554 638 41,000  Level Indianapolis Center
05:42PM 37.2019 -82.0181 65° Northeast 554 638 41,000  Level Indianapolis Center
05:43PM 37.2672 -81.8419 65° Northeast 554 638 41,000  Level Indianapolis Center
05:44PM 37.3431 -81.6372 65° Northeast 554 638 41,000  Level Indianapolis Center
05:45PM 37.3981 -81.4850 66° East 554 638 41,000  Level Indianapolis Center
05:46PM 37.4731 -81.2739 66° East 553 636 41,000  Level Indianapolis Center
05:47PM 37.5372 -81.0981 65° Northeast 553 636 41,000  Level Indianapolis Center
05:48PM 37.6014 -80.9217 65° Northeast 553 636 41,000  Level Indianapolis Center
05:49PM 37.6636 -80.7475 66° East 552 635 41,000  Level Indianapolis Center
05:50PM 37.7269 -80.5717 65° Northeast 551 634 41,000  Level Indianapolis Center
05:51PM 37.7889 -80.4033 65° Northeast 543 625 41,000  Level Washington Center
05:52PM 37.8503 -80.2258 66° East 549 632 41,000 -300 Level Washington Center
05:53PM 37.9200 -80.0328 65° Northeast 549 632 40,500 -1,020 Descending Washington Center
05:54PM 37.9828 -79.8519 66° East 549 632 39,000 -1,500 Descending Washington Center
05:55PM 38.0456 -79.6736 66° East 549 632 37,600 -1,020 Descending Washington Center
05:56PM 38.1058 -79.4922 67° East 549 632 37,000 -300 Descending Washington Center
05:57PM 38.1678 -79.3131 66° East 549 632 37,000  Level Washington Center
05:58PM 38.2294 -79.1311 67° East 549 632 37,000  Level Washington Center
05:59PM 38.2911 -78.9461 67° East 554 638 37,000  Level Washington Center
06:01PM 38.4114 -78.5728 71° East 559 643 37,000  Level Washington Center
06:02PM 38.4700 -78.3894 68° East 565 650 37,000  Level Washington Center
06:03PM 38.5328 -78.2006 67° East 570 656 37,000  Level Washington Center
06:04PM 38.5911 -78.0061 69° East 570 656 37,000 -420 Level Washington Center
06:05PM 38.6261 -77.8133 77° East 565 650 36,200 -1,500 Descending Washington Center
06:06PM 38.6567 -77.6147 79° East 560 644 34,000 -1,140 Descending Washington Center
06:07PM 38.6911 -77.4083 78° East 571 657 34,000  Level Washington Center
06:08PM 38.7253 -77.2042 78° East 582 670 34,000  Level Washington Center
06:09PM 38.7592 -77.0000 78° East 582 670 34,000  Level Washington Center
06:10PM 38.7947 -76.7903 78° East 582 670 34,000  Level Washington Center
06:11PM 38.8258 -76.5828 79° East 582 670 34,000  Level Washington Center
06:12PM 38.8586 -76.3753 78° East 588 677 34,000 -420 Level Washington Center
06:13PM 38.8911 -76.1678 79° East 588 677 33,200 -1,980 Descending Washington Center
06:14PM 38.9253 -75.9678 78° East 580 667 30,100 -2,160 Descending Washington Center
06:15PM 38.9528 -75.7786 79° East 560 644 29,000 -600 Descending Washington Center
06:16PM 38.9819 -75.5808 79° East 560 644 29,000  Level Washington Center
06:17PM 39.0111 -75.3806 79° East 560 644 29,000  Level Washington Center
06:18PM 39.0356 -75.1853 81° East 560 644 29,000  Level Washington Center
06:19PM 39.0492 -74.9794 85° East 566 651 29,000 -540 Level Washington Center
06:20PM 39.0625 -74.7764 85° East 566 651 28,000 -1,680 Descending Washington Center
06:21PM 39.0986 -74.5833 76° East 553 636 25,700 -1,500 Descending Washington Center
06:22PM 39.2039 -74.4694 40° Northeast 515 593 25,000 -1,080 Descending Washington Center
06:24PM 39.4497 -74.2158 39° Northeast 508 585 22,300 -1,260 Descending Boston Center
06:25PM 39.5522 -74.0939 43° Northeast 506 582 21,000 -660 Descending Boston Center
06:26PM 39.6369 -73.9653 49° Northeast 493 567 21,000  Level New York Center
06:29PM 39.8553 -73.6844 45° Northeast 495 570 21,000 -840 Level Boston Center
06:30PM 39.9542 -73.5600 44° Northeast 494 568 18,500 -2,760 Descending Boston Center
06:31PM 40.0492 -73.4400 44° Northeast 479 551 15,300 -3,000 Descending Boston Center
06:32PM 40.1364 -73.3300 44° Northeast 441 507 12,400 -1,920 Descending Boston Center
06:33PM 40.2094 -73.2347 45° Northeast 373 429 11,400 -1,380 Descending Boston Center
06:34PM 40.2869 -73.1369 44° Northeast 325 374 9,600 -1,200 Descending Boston Center
06:35PM 40.3464 -73.0600 45° Northeast 306 352 9,000 -300 Descending Boston Center
06:36PM 40.4056 -72.9844 44° Northeast 299 344 9,000 -420 Level Boston Center
06:37PM 40.4608 -72.9139 44° Northeast 280 322 8,200 -840 Descending Boston Center
06:38PM 40.5100 -72.8497 45° Northeast 254 292 7,300 -660 Descending Boston Center
06:39PM 40.5586 -72.7869 44° Northeast 250 288 6,900 -1,080 Descending Boston Center
06:40PM 40.6372 -72.7283 29° Northeast 275 316 5,100 -1,440 Descending Boston Center
06:41PM 40.7061 -72.6836 26° Northeast 275 316 4,000 -780 Descending Boston Center
06:42PM 40.7714 -72.6408 26° Northeast 270 311 3,500 -780 Descending Boston Center
06:43PM 40.8275 -72.5928 33° Northeast 254 292 2,500 -960 Descending Boston Center
06:44PM 40.8808 -72.5578 26° Northeast 209 241 1,600 -960 Descending Boston Center
06:45PM 40.8725 -72.5969 254° West 159 183 600 -720 Descending Boston Center
06:46PM 40.8503 -72.6236 222° Southwest 141 162 200 -420 Descending Boston Center
06:48PM 40.8437 -72.6318 246° West  Level Estimated
06:55PM 40.8437 -72.6318 246° West  Level Estimated